Red Fish — WDF3926 — position and weather

sailwx.info

Track history (hours):
 
Tides and Currents Weather Stations Pressure Air Temp Water Temp Dewpoint Dewpoint Depression Visibility Wind Speed Wind Dir Waves Ship Positions

Red Fish

Owner: Higman Barge Lines, Inc 1980 Post Oak Blvd., Suite 1101 Houston, Texas 77056, Orange, TX. More information available from US FCC via Universal Licensing System and Coast Guard Vessel Documentation Center.

Last reported at 2016-Aug-22 15:33 UTC. Time now 2016-Aug-25 02:45 UTC.
Position N 32°38' W 091°09'.

Length 26 m; draft 2.9 m.

Type: Towing. MMSI: 367445690.

Date/timePositionNaut miles runAvg speedWind from/ knotsBaromVisibWave heightAir tempDewpointWater temp
2016-Aug-22 15:33N 32°38' W 091°09'5 5.5
2016-Aug-22 14:33N 32°33' W 091°06'5 5.4
2016-Aug-22 13:33N 32°28' W 091°06'6 5.6
2016-Aug-22 12:33N 32°25' W 091°00'4 4.4
2016-Aug-22 11:33N 32°21' W 090°59'4 3.6
2016-Aug-22 10:33N 32°20' W 090°54'3 3.3
2016-Aug-22 09:33N 32°17' W 090°56'3 3.0
2016-Aug-22 08:33N 32°15' W 090°59'5 5.1
2016-Aug-22 07:33N 32°10' W 091°00'4 4.0
2016-Aug-22 06:32N 32°08' W 091°04'3 2.3
2016-Aug-22 05:24N 32°05' W 091°05'2 1.8
2016-Aug-22 04:23N 32°03' W 091°04'5 5.7
2016-Aug-22 03:33N 31°59' W 091°07'5 5.0
2016-Aug-22 02:33N 31°57' W 091°11'  
Track history (hours):
 
Tides and Currents Weather Stations Pressure Air Temp Water Temp Dewpoint Dewpoint Depression Visibility Wind Speed Wind Dir Waves Ship Positions

Red Fish

Owner: Higman Barge Lines, Inc 1980 Post Oak Blvd., Suite 1101 Houston, Texas 77056, Orange, TX. More information available from US FCC via Universal Licensing System and Coast Guard Vessel Documentation Center.

Last reported at 2016-Aug-22 15:33 UTC. Time now 2016-Aug-25 02:45 UTC.
Position N 32°38' W 091°09'.

Length 26 m; draft 2.9 m.

Type: Towing. MMSI: 367445690.

Date/timePositionNaut miles runAvg speedWind from/ knotsBaromVisibWave heightAir tempDewpointWater temp
2016-Aug-22 15:33N 32°38' W 091°09'5 5.5
2016-Aug-22 14:33N 32°33' W 091°06'5 5.4
2016-Aug-22 13:33N 32°28' W 091°06'6 5.6
2016-Aug-22 12:33N 32°25' W 091°00'4 4.4
2016-Aug-22 11:33N 32°21' W 090°59'4 3.6
2016-Aug-22 10:33N 32°20' W 090°54'3 3.3
2016-Aug-22 09:33N 32°17' W 090°56'3 3.0
2016-Aug-22 08:33N 32°15' W 090°59'5 5.1
2016-Aug-22 07:33N 32°10' W 091°00'4 4.0
2016-Aug-22 06:32N 32°08' W 091°04'3 2.3
2016-Aug-22 05:24N 32°05' W 091°05'2 1.8
2016-Aug-22 04:23N 32°03' W 091°04'5 5.7
2016-Aug-22 03:33N 31°59' W 091°07'5 5.0
2016-Aug-22 02:33N 31°57' W 091°11'  

Dump ship's entire track history